Time;durP1;ratioP1;P1;durP2;ratioP2;P2;SDS_P1;SDS_P2;PMS_P1;PMS_P2;Temp;Humidity;BMP_temperature;BMP_pressure;BME280_temperature;BME280_humidity;BME280_pressure;Samples;Min_cycle;Max_cycle;Signal;HPM_P1;HPM_P2
2022/10/07 00:01:34;;;;;;;;;;;;;;;-144.99;98.76;52362.50;5056009;28;20016;-81
2022/10/07 00:04:00;;;;;;;;;;;;;;;-144.99;98.62;52407.31;5054239;28;20123;-81
2022/10/07 00:06:28;;;;;;;;;;;;;;;-144.99;98.05;52395.09;5038436;28;20424;-79
2022/10/07 00:08:55;;;;;;;;;;;;;;;-144.99;98.07;52435.88;5038681;28;20011;-80
2022/10/07 00:11:22;;;;;;;;;;;;;;;-144.99;97.74;52378.78;5050170;28;20011;-79
2022/10/07 00:13:50;;;;;;;;;;;;;;;-144.99;98.77;52403.25;5035881;28;19929;-78
2022/10/07 00:16:19;;;;;;;;;;;;;;;-144.99;98.56;52313.56;5034890;28;20193;-78
2022/10/07 00:18:45;;;;;;;;;;;;;;;-144.99;98.13;52382.88;5029384;28;19925;-78
2022/10/07 00:21:12;;;;;;;;;;;;;;;-144.99;98.04;52423.63;5030235;28;19925;-78
2022/10/07 00:23:41;;;;;;;;;;;;;;;-144.99;98.73;52391.03;5029593;28;19929;-78
2022/10/07 00:26:08;;;;;;;;;;;;;;;-144.99;98.40;52419.56;5029423;28;19939;-81
2022/10/07 00:28:35;;;;;;;;;;;;;;;-144.99;98.01;52354.34;5029759;28;19936;-80
2022/10/07 00:31:02;;;;;;;;;;;;;;;-144.99;97.67;52391.03;5036555;28;20405;-79
2022/10/07 00:33:30;;;;;;;;;;;;;;;-144.99;96.98;52358.41;4686520;28;10000055;-78
2022/10/07 00:35:56;;;;;;;;;;;;;;;-144.99;97.04;52388.97;5036293;28;19936;-80
2022/10/07 00:38:23;;;;;;;;;;;;;;;-144.99;97.01;52376.75;5028579;28;20215;-79
2022/10/07 00:40:50;;;;;;;;;;;;;;;-144.99;96.68;52386.94;5030016;28;19932;-80
2022/10/07 00:43:25;;;;;;;;;;;;;;;-144.99;96.37;52354.34;5058808;22;19940;-71
2022/10/07 00:45:52;;;;;;;;;;;;;;;-144.99;96.40;52433.81;5047470;28;20414;-73
2022/10/07 00:48:20;;;;;;;;;;;;;;;-144.99;96.92;52423.63;5043047;28;19925;-74
2022/10/07 00:50:48;;;;;;;;;;;;;;;-144.99;97.26;52376.75;5050031;28;20465;-74
2022/10/07 00:53:15;;;;;;;;;;;;;;;-144.99;96.98;52417.53;5042155;28;19924;-73
2022/10/07 00:55:42;;;;;;;;;;;;;;;-144.99;96.68;52391.03;5037741;28;19931;-73
2022/10/07 00:58:10;;;;;;;;;;;;;;;-144.99;96.15;52395.09;5049049;28;19932;-73
2022/10/07 01:00:37;;;;;;;;;;;;;;;-144.99;96.21;52403.25;5048514;28;19924;-73
2022/10/07 01:03:04;;;;;;;;;;;;;;;-144.99;96.80;52399.19;5043793;28;19924;-73
2022/10/07 01:05:30;;;;;;;;;;;;;;;-144.99;95.84;52382.88;5048433;28;19925;-73
2022/10/07 01:07:57;;;;;;;;;;;;;;;-144.99;96.39;52393.06;5048876;28;19928;-73
2022/10/07 01:10:27;;;;;;;;;;;;;;;-144.99;97.65;52421.59;5069337;28;19980;-73
2022/10/07 01:13:02;;;;;;;;;;;;;;;-144.99;97.55;52393.06;5075173;28;19929;-73
2022/10/07 01:15:34;;;;;;;;;;;;;;;-144.99;97.04;52382.88;5051629;28;19937;-72
2022/10/07 01:18:05;;;;;;;;;;;;;;;-144.99;97.03;52391.03;5048585;28;19982;-73
2022/10/07 01:20:34;;;;;;;;;;;;;;;-144.99;96.82;52403.25;5035336;28;19928;-73
2022/10/07 01:23:19;;;;;;;;;;;;;;;-144.99;97.01;52391.03;5049545;28;20260;-73
2022/10/07 01:25:54;;;;;;;;;;;;;;;-144.99;96.79;52374.72;5051100;28;19925;-74
2022/10/07 01:28:25;;;;;;;;;;;;;;;-144.99;97.18;52386.94;5046419;28;19929;-74
2022/10/07 01:30:54;;;;;;;;;;;;;;;-144.99;96.75;52395.09;5043195;28;19932;-75
2022/10/07 01:33:25;;;;;;;;;;;;;;;-144.99;96.28;52374.72;5044704;28;19929;-75
2022/10/07 01:35:52;;;;;;;;;;;;;;;-144.99;96.31;52378.78;5051199;28;19932;-75
2022/10/07 01:38:20;;;;;;;;;;;;;;;-144.99;96.92;52378.78;5046635;28;19925;-75
2022/10/07 01:40:48;;;;;;;;;;;;;;;-144.99;97.26;52417.53;5045570;28;20367;-75
2022/10/07 01:43:16;;;;;;;;;;;;;;;-144.99;97.45;52386.94;5050042;28;19931;-76
2022/10/07 01:45:43;;;;;;;;;;;;;;;-144.99;96.87;52374.72;5050623;28;20019;-74
2022/10/07 01:48:10;;;;;;;;;;;;;;;-144.99;96.63;52399.19;5048948;28;19940;-74
2022/10/07 01:50:37;;;;;;;;;;;;;;;-144.99;97.48;52411.41;5038009;28;19929;-75
2022/10/07 01:53:11;;;;;;;;;;;;;;;-144.99;97.17;52403.25;5045314;28;19925;-75
2022/10/07 01:55:44;;;;;;;;;;;;;;;-144.99;96.83;52425.66;5050675;28;19932;-73
2022/10/07 01:58:15;;;;;;;;;;;;;;;-144.99;97.03;52382.88;5050543;28;19971;-75
2022/10/07 02:00:46;;;;;;;;;;;;;;;-144.99;97.50;52374.72;5048131;28;20046;-74
2022/10/07 02:03:22;;;;;;;;;;;;;;;-144.99;98.13;52421.59;5043721;28;19924;-76
2022/10/07 02:05:51;;;;;;;;;;;;;;;-144.99;98.25;52395.09;5069551;28;19956;-76
2022/10/07 02:08:23;;;;;;;;;;;;;;;-144.99;98.52;52391.03;5067905;28;19925;-75
2022/10/07 02:10:55;;;;;;;;;;;;;;;-144.99;99.29;52384.91;5048344;28;19925;-75
2022/10/07 02:13:27;;;;;;;;;;;;;;;-144.99;99.96;52403.25;5040705;28;19943;-75
2022/10/07 02:15:58;;;;;;;;;;;;;;;-144.99;99.49;52374.72;5039785;28;19925;-77
2022/10/07 02:18:25;;;;;;;;;;;;;;;-144.99;99.22;52423.63;5050136;28;19935;-78
2022/10/07 02:20:53;;;;;;;;;;;;;;;-144.99;99.62;52403.25;5058294;28;19925;-76
2022/10/07 02:23:21;;;;;;;;;;;;;;;-144.99;100.00;52427.72;5050206;28;19925;-71
2022/10/07 02:25:48;;;;;;;;;;;;;;;-144.99;100.00;52423.63;5049418;28;19928;-73
2022/10/07 02:28:16;;;;;;;;;;;;;;;-144.99;99.80;52425.66;5056300;28;19939;-72
2022/10/07 02:30:44;;;;;;;;;;;;;;;-144.99;100.00;52382.88;5050462;28;19929;-74
2022/10/07 02:33:12;;;;;;;;;;;;;;;-144.99;100.00;52409.38;5048993;28;20268;-74
2022/10/07 02:35:41;;;;;;;;;;;;;;;-144.99;100.00;52399.19;5054356;28;19928;-74
2022/10/07 02:38:09;;;;;;;;;;;;;;;-144.99;100.00;52395.09;5037625;28;19936;-74
2022/10/07 02:40:39;;;;;;;;;;;;;;;-144.99;100.00;52395.09;5042040;28;19925;-73
2022/10/07 02:43:09;;;;;;;;;;;;;;;-144.99;100.00;52376.75;5046861;28;20004;-73
2022/10/07 02:45:38;;;;;;;;;;;;;;;-144.99;99.64;52401.22;5052584;28;19936;-74
2022/10/07 02:48:09;;;;;;;;;;;;;;;-144.99;100.00;52403.25;5053350;28;20221;-73
2022/10/07 02:50:38;;;;;;;;;;;;;;;-144.99;100.00;52374.72;5047643;28;19929;-73
2022/10/07 02:53:05;;;;;;;;;;;;;;;-144.99;100.00;52417.53;5046072;28;20064;-74
2022/10/07 02:55:33;;;;;;;;;;;;;;;-144.99;100.00;52382.88;5047140;28;19925;-71
2022/10/07 02:58:01;;;;;;;;;;;;;;;-144.99;100.00;52382.88;5055464;28;19996;-73
2022/10/07 03:00:29;;;;;;;;;;;;;;;-144.99;100.00;52435.88;5072921;28;19925;-73
2022/10/07 03:02:57;;;;;;;;;;;;;;;-144.99;100.00;52384.91;5065586;28;20016;-73
2022/10/07 03:05:24;;;;;;;;;;;;;;;-144.99;100.00;52427.72;5047872;28;19924;-73
2022/10/07 03:07:54;;;;;;;;;;;;;;;-144.99;100.00;52427.72;5052589;28;19941;-73
2022/10/07 03:10:21;;;;;;;;;;;;;;;-144.99;100.00;52419.56;5052620;28;19929;-74
2022/10/07 03:12:47;;;;;;;;;;;;;;;-144.99;100.00;52403.25;5044354;28;19936;-75
2022/10/07 03:15:13;;;;;;;;;;;;;;;-144.99;100.00;52415.47;5045411;28;19931;-76
2022/10/07 03:17:40;;;;;;;;;;;;;;;-144.99;100.00;52362.50;5053271;28;19935;-77
2022/10/07 03:20:08;;;;;;;;;;;;;;;-144.99;97.99;52358.41;5053852;28;20281;-75
2022/10/07 03:22:34;;;;;;;;;;;;;;;-144.99;100.00;52391.03;5047817;28;19964;-75
2022/10/07 03:25:02;;;;;;;;;;;;;;;-144.99;100.00;52421.59;5051522;28;19924;-77
2022/10/07 03:27:28;;;;;;;;;;;;;;;-144.99;100.00;52407.31;5051920;28;19936;-76
2022/10/07 03:29:57;;;;;;;;;;;;;;;-144.99;100.00;52399.19;5042892;28;19924;-76
2022/10/07 03:32:24;;;;;;;;;;;;;;;-144.99;99.97;52427.72;5051813;28;20373;-75
2022/10/07 03:34:51;;;;;;;;;;;;;;;-144.99;99.03;52399.19;5042095;28;20012;-76
2022/10/07 03:37:18;;;;;;;;;;;;;;;-144.99;98.98;52395.09;5051655;28;20440;-74
2022/10/07 03:39:44;;;;;;;;;;;;;;;-144.99;98.68;52374.72;5052501;28;20084;-74
2022/10/07 03:42:12;;;;;;;;;;;;;;;-144.99;97.71;52378.78;5051573;28;19935;-73
2022/10/07 03:44:38;;;;;;;;;;;;;;;-144.99;97.67;52378.78;5048713;28;19960;-74
2022/10/07 03:47:07;;;;;;;;;;;;;;;-144.99;97.87;52395.09;5054530;28;19936;-73
2022/10/07 03:49:34;;;;;;;;;;;;;;;-144.99;96.88;52380.84;5055029;28;19925;-73
2022/10/07 03:52:02;;;;;;;;;;;;;;;-144.99;96.78;52395.09;5052468;28;20343;-73
2022/10/07 03:54:28;;;;;;;;;;;;;;;-144.99;96.70;52421.59;5070576;28;19948;-74
2022/10/07 03:56:54;;;;;;;;;;;;;;;-144.99;96.50;52407.31;5073511;28;19925;-74
2022/10/07 03:59:22;;;;;;;;;;;;;;;-144.99;95.77;52415.47;5049749;28;20024;-73
2022/10/07 04:01:48;;;;;;;;;;;;;;;-144.99;96.08;52403.25;5051669;28;19925;-73
2022/10/07 04:04:15;;;;;;;;;;;;;;;-144.99;95.31;52403.25;5046768;28;19975;-73
2022/10/07 04:06:42;;;;;;;;;;;;;;;-144.99;94.69;52407.31;5044561;28;19924;-76
2022/10/07 04:09:08;;;;;;;;;;;;;;;-144.99;94.24;52415.47;5057240;28;20190;-73
2022/10/07 04:11:39;;;;;;;;;;;;;;;-144.99;94.17;52403.25;5057531;28;19925;-73
2022/10/07 04:14:05;;;;;;;;;;;;;;;-144.99;94.08;52413.44;5055109;28;19931;-74
2022/10/07 04:16:33;;;;;;;;;;;;;;;-144.99;93.69;52378.78;5048679;28;19924;-75
2022/10/07 04:18:59;;;;;;;;;;;;;;;-144.99;94.76;52403.25;5049812;28;19963;-73
2022/10/07 04:21:26;;;;;;;;;;;;;;;-144.99;95.51;52382.88;5058323;28;19924;-75
2022/10/07 04:23:52;;;;;;;;;;;;;;;-144.99;95.90;52386.94;5053815;28;20292;-74
2022/10/07 04:26:18;;;;;;;;;;;;;;;-144.99;96.08;52427.72;5040578;28;19935;-75
2022/10/07 04:28:45;;;;;;;;;;;;;;;-144.99;95.87;52382.88;5053760;28;19947;-75
2022/10/07 04:31:11;;;;;;;;;;;;;;;-144.99;96.61;52376.75;5053999;28;19931;-75
2022/10/07 04:33:39;;;;;;;;;;;;;;;-144.99;96.71;52374.72;5046654;28;19933;-75
2022/10/07 04:36:06;;;;;;;;;;;;;;;-144.99;96.53;52417.53;5052356;28;19932;-75
2022/10/07 04:38:33;;;;;;;;;;;;;;;-144.99;95.81;52407.31;5052085;28;20019;-74
2022/10/07 04:41:03;;;;;;;;;;;;;;;-144.99;95.77;52386.94;5053281;28;19970;-74
2022/10/07 04:43:32;;;;;;;;;;;;;;;-144.99;97.11;52407.31;5054775;28;20074;-77
2022/10/07 04:46:01;;;;;;;;;;;;;;;-144.99;97.50;52429.75;5052949;28;20311;-76
2022/10/07 04:48:27;;;;;;;;;;;;;;;-144.99;98.40;52374.72;5052865;28;19925;-75
2022/10/07 04:50:55;;;;;;;;;;;;;;;-144.99;98.56;52386.94;5059700;28;19929;-74
2022/10/07 04:53:21;;;;;;;;;;;;;;;-144.99;98.48;52435.88;5054206;28;20003;-75
2022/10/07 04:55:49;;;;;;;;;;;;;;;-144.99;98.89;52403.25;5051058;28;19924;-73
2022/10/07 04:58:15;;;;;;;;;;;;;;;-144.99;98.75;52413.44;5051618;28;19925;-74
2022/10/07 05:00:43;;;;;;;;;;;;;;;-144.99;98.86;52444.03;5053371;28;19928;-75
2022/10/07 05:03:10;;;;;;;;;;;;;;;-144.99;98.72;52382.88;5058048;28;19924;-74
2022/10/07 05:05:37;;;;;;;;;;;;;;;-144.99;99.81;52370.63;5058084;28;19947;-76
2022/10/07 05:08:06;;;;;;;;;;;;;;;-144.99;99.33;52386.94;5055782;28;20147;-75
2022/10/07 05:10:35;;;;;;;;;;;;;;;-144.99;99.48;52386.94;5054751;28;19953;-77
2022/10/07 05:13:02;;;;;;;;;;;;;;;-144.99;99.59;52421.59;5056405;28;19980;-77
2022/10/07 05:15:29;;;;;;;;;;;;;;;-144.99;100.00;52403.25;5050278;28;19928;-76
2022/10/07 05:17:55;;;;;;;;;;;;;;;-144.99;100.00;52391.03;5049923;28;19929;-75
2022/10/07 05:20:22;;;;;;;;;;;;;;;-144.99;100.00;52435.88;5059525;28;19939;-77
2022/10/07 05:22:48;;;;;;;;;;;;;;;-144.99;100.00;52409.38;5052151;28;19940;-75
2022/10/07 05:25:16;;;;;;;;;;;;;;;-144.99;100.00;52382.88;5052106;28;19933;-73
2022/10/07 05:27:42;;;;;;;;;;;;;;;-144.99;100.00;52415.47;5051082;28;20398;-75
2022/10/07 05:30:09;;;;;;;;;;;;;;;-144.99;100.00;52395.09;5048980;28;20504;-76
2022/10/07 05:32:36;;;;;;;;;;;;;;;-144.99;100.00;52401.22;5049598;28;20479;-75
2022/10/07 05:35:02;;;;;;;;;;;;;;;-144.99;100.00;52407.31;5053701;28;19932;-76
2022/10/07 05:37:28;;;;;;;;;;;;;;;-144.99;100.00;52413.44;5052838;28;20436;-75
2022/10/07 05:39:55;;;;;;;;;;;;;;;-144.99;100.00;52419.56;5051876;28;19924;-76
2022/10/07 05:42:23;;;;;;;;;;;;;;;-144.99;100.00;52444.03;5057070;28;19958;-74
2022/10/07 05:44:49;;;;;;;;;;;;;;;-144.99;100.00;52409.38;5049754;28;19940;-75
2022/10/07 05:47:17;;;;;;;;;;;;;;;-144.99;100.00;52425.66;5055834;28;20030;-74
2022/10/07 05:49:43;;;;;;;;;;;;;;;-144.99;100.00;52439.94;5052763;28;19925;-76
2022/10/07 05:52:09;;;;;;;;;;;;;;;-144.99;100.00;52419.56;5047189;28;19925;-76
2022/10/07 05:54:36;;;;;;;;;;;;;;;-144.99;100.00;52423.63;5052049;28;19929;-74
2022/10/07 05:57:02;;;;;;;;;;;;;;;-144.99;99.91;52358.41;5050299;28;19929;-74
2022/10/07 05:59:30;;;;;;;;;;;;;;;-144.99;100.00;52374.72;5047599;28;19936;-73
2022/10/07 06:01:59;;;;;;;;;;;;;;;-144.99;99.68;52366.56;5051647;28;19925;-73
2022/10/07 06:04:25;;;;;;;;;;;;;;;-144.99;99.06;52411.41;5054089;28;19925;-74
2022/10/07 06:06:52;;;;;;;;;;;;;;;-144.99;98.07;52382.88;5048732;28;19975;-73
2022/10/07 06:14:48;;;;;;;;;;;;;;;-144.99;96.68;52399.19;5056424;28;20326;-76
2022/10/07 06:17:14;;;;;;;;;;;;;;;-144.99;95.71;52391.03;5055116;28;19924;-73
2022/10/07 06:19:40;;;;;;;;;;;;;;;-144.99;95.07;52364.53;5042192;28;20256;-76
2022/10/07 06:22:07;;;;;;;;;;;;;;;-144.99;94.64;52382.88;5054232;28;19996;-75
2022/10/07 06:24:34;;;;;;;;;;;;;;;-144.99;94.43;52356.38;5051504;28;19925;-74
2022/10/07 06:27:00;;;;;;;;;;;;;;;-144.99;94.07;52358.41;5051126;28;20418;-74
2022/10/07 06:29:27;;;;;;;;;;;;;;;-144.99;93.77;52344.16;5041999;28;20345;-74
2022/10/07 06:31:55;;;;;;;;;;;;;;;-144.99;93.45;52391.03;5043215;28;19929;-73
2022/10/07 06:34:21;;;;;;;;;;;;;;;-144.99;93.26;52358.41;5050135;28;19960;-75
2022/10/07 06:36:48;;;;;;;;;;;;;;;-144.99;92.71;52380.84;5046226;28;19932;-73
2022/10/07 06:39:15;;;;;;;;;;;;;;;-144.99;91.02;52362.50;5068105;28;19990;-75
2022/10/07 06:41:42;;;;;;;;;;;;;;;-144.99;89.83;52342.09;5067163;28;19983;-74
2022/10/07 06:44:08;;;;;;;;;;;;;;;-144.99;89.67;52374.72;5082602;22;19933;-75
2022/10/07 06:46:35;;;;;;;;;;;;;;;-144.99;88.77;52368.59;5050477;28;19975;-81
2022/10/07 06:49:02;;;;;;;;;;;;;;;-144.99;87.49;52350.25;5071233;28;20419;-82
2022/10/07 06:51:29;;;;;;;;;;;;;;;-144.99;87.09;52313.56;5071917;28;19928;-80
2022/10/07 06:53:56;;;;;;;;;;;;;;;-144.99;87.21;52338.03;5071480;28;20334;-81
2022/10/07 06:56:23;;;;;;;;;;;;;;;-144.99;87.25;52362.50;5067647;28;19966;-81
2022/10/07 06:58:49;;;;;;;;;;;;;;;-144.99;86.79;52374.72;5067886;28;20281;-81
2022/10/07 07:01:16;;;;;;;;;;;;;;;-144.99;86.12;52378.78;5070633;28;19924;-81
2022/10/07 07:03:42;;;;;;;;;;;;;;;-144.99;84.45;52370.63;5076755;28;20000;-81
2022/10/07 07:06:10;;;;;;;;;;;;;;;-144.99;84.10;52354.34;5093793;28;19996;-82
2022/10/07 07:08:37;;;;;;;;;;;;;;;-144.99;83.94;52346.19;5088453;28;19944;-82
2022/10/07 07:11:05;;;;;;;;;;;;;;;-144.99;82.18;52382.88;5077236;28;19935;-81
2022/10/07 07:13:34;;;;;;;;;;;;;;;-144.99;82.85;52338.03;5092521;28;19925;-83
2022/10/07 07:16:01;;;;;;;;;;;;;;;-144.99;81.84;52350.25;5098814;28;19928;-82
2022/10/07 07:18:28;;;;;;;;;;;;;;;-144.99;81.47;52378.78;5082325;28;20024;-80
2022/10/07 07:20:56;;;;;;;;;;;;;;;-144.99;81.58;52384.91;5085987;28;19924;-81
2022/10/07 07:23:27;;;;;;;;;;;;;;;-144.99;81.86;52407.31;5082138;28;19934;-81
2022/10/07 07:25:53;;;;;;;;;;;;;;;-144.99;81.65;52348.22;5076180;28;20387;-80
2022/10/07 07:28:20;;;;;;;;;;;;;;;-144.99;79.94;52342.09;5088069;28;19925;-80
2022/10/07 07:30:47;;;;;;;;;;;;;;;-144.99;80.29;52370.63;5090533;28;20130;-80
2022/10/07 07:33:13;;;;;;;;;;;;;;;-144.99;77.92;52354.34;5071567;28;19974;-80
2022/10/07 07:35:42;;;;;;;;;;;;;;;-144.99;77.50;52333.94;5065944;28;19928;-77
2022/10/07 07:38:08;;;;;;;;;;;;;;;-144.99;79.44;52333.94;5067615;28;20285;-79
2022/10/07 07:40:37;;;;;;;;;;;;;;;-144.99;77.26;52354.34;5070647;28;19928;-79
2022/10/07 07:43:04;;;;;;;;;;;;;;;-144.99;75.24;52313.56;5066552;28;19992;-81
2022/10/07 07:45:31;;;;;;;;;;;;;;;-144.99;74.67;52358.41;5082987;28;20016;-81
2022/10/07 07:47:58;;;;;;;;;;;;;;;-144.99;74.98;52350.25;5074239;28;19982;-79
2022/10/07 07:50:26;;;;;;;;;;;;;;;-144.99;74.37;52323.75;5075918;28;19924;-80
2022/10/07 07:52:52;;;;;;;;;;;;;;;-144.99;74.78;52350.25;5074030;28;19925;-80
2022/10/07 07:55:19;;;;;;;;;;;;;;;-144.99;74.68;52378.78;5070398;28;19954;-81
2022/10/07 07:57:47;;;;;;;;;;;;;;;-144.99;73.84;52350.25;5071570;28;20381;-80
2022/10/07 08:00:15;;;;;;;;;;;;;;;-144.99;73.02;52350.25;5074609;28;19930;-80
2022/10/07 08:02:41;;;;;;;;;;;;;;;-144.99;72.31;52340.06;5099874;28;19924;-83
2022/10/07 08:05:07;;;;;;;;;;;;;;;-144.99;72.19;52317.66;5088770;28;20337;-81
2022/10/07 08:07:34;;;;;;;;;;;;;;;-144.99;69.69;52333.94;5073443;28;20011;-80
2022/10/07 08:10:01;;;;;;;;;;;;;;;-144.99;69.74;52301.34;5073335;28;20305;-81
2022/10/07 08:12:27;;;;;;;;;;;;;;;-144.99;70.15;52299.31;5084214;28;19924;-81
2022/10/07 08:14:55;;;;;;;;;;;;;;;-144.99;71.23;52333.94;5077591;28;20010;-82
2022/10/07 08:17:21;;;;;;;;;;;;;;;-144.99;71.48;52317.66;5075042;28;20018;-80
2022/10/07 08:19:48;;;;;;;;;;;;;;;-144.99;71.53;52358.41;5074426;28;20283;-81
2022/10/07 08:22:16;;;;;;;;;;;;;;;-144.99;71.96;52344.16;5072684;28;19940;-80
2022/10/07 08:24:43;;;;;;;;;;;;;;;-144.99;70.87;52287.06;5086746;28;19924;-81
2022/10/07 08:27:09;;;;;;;;;;;;;;;-144.99;70.20;52338.03;5077417;28;19925;-80
2022/10/07 08:29:36;;;;;;;;;;;;;;;-144.99;69.28;52285.03;5077767;28;20031;-81
2022/10/07 08:32:04;;;;;;;;;;;;;;;-144.99;70.39;52362.50;5087919;28;19946;-83
2022/10/07 08:34:31;;;;;;;;;;;;;;;-144.99;69.69;52297.25;5091261;28;19928;-83
2022/10/07 08:36:57;;;;;;;;;;;;;;;-144.99;67.82;52295.22;5101520;28;19925;-82
2022/10/07 08:39:26;;;;;;;;;;;;;;;-144.99;66.75;52317.66;5076901;28;19978;-84
2022/10/07 08:41:56;;;;;;;;;;;;;;;-144.99;66.01;52293.19;5074602;28;20027;-81
2022/10/07 08:44:27;;;;;;;;;;;;;;;-144.99;65.18;52276.88;5073798;28;19924;-79
2022/10/07 08:46:57;;;;;;;;;;;;;;;-144.99;64.00;52293.19;5069499;28;19924;-79
2022/10/07 08:49:29;;;;;;;;;;;;;;;-144.99;62.22;52238.16;5074021;28;19932;-79
2022/10/07 08:51:58;;;;;;;;;;;;;;;-144.99;61.35;52297.25;5071835;28;19951;-79
2022/10/07 08:54:26;;;;;;;;;;;;;;;-144.99;60.11;52268.72;5089001;28;19924;-80
2022/10/07 08:56:54;;;;;;;;;;;;;;;-144.99;60.46;52283.00;5066725;28;19924;-82
2022/10/07 08:59:23;;;;;;;;;;;;;;;-144.99;60.92;52276.88;5067131;28;20125;-78
2022/10/07 09:02:00;;;;;;;;;;;;;;;-144.99;62.00;52299.31;5069147;28;20011;-78
2022/10/07 09:04:36;;;;;;;;;;;;;;;-144.99;61.19;52289.13;5071248;28;20031;-78
2022/10/07 09:07:03;;;;;;;;;;;;;;;-144.99;62.39;52301.34;5071094;28;19937;-78
2022/10/07 09:09:33;;;;;;;;;;;;;;;-144.99;62.88;52276.88;5068118;28;19931;-79
2022/10/07 09:12:01;;;;;;;;;;;;;;;-144.99;62.76;52301.34;5069546;28;19931;-78
2022/10/07 09:14:29;;;;;;;;;;;;;;;-144.99;63.08;52260.56;5062968;28;19924;-78
2022/10/07 09:16:58;;;;;;;;;;;;;;;-144.99;61.90;52260.56;5073655;28;20040;-75
2022/10/07 09:19:28;;;;;;;;;;;;;;;-144.99;61.07;52260.56;5071398;28;20030;-77
2022/10/07 09:22:00;;;;;;;;;;;;;;;-144.99;60.77;52252.44;5067822;28;19925;-77
2022/10/07 09:24:28;;;;;;;;;;;;;;;-144.99;58.89;52276.88;5060345;28;19925;-79
2022/10/07 09:26:56;;;;;;;;;;;;;;;-144.99;58.40;52203.50;5084957;28;20022;-78
2022/10/07 09:29:24;;;;;;;;;;;;;;;-144.99;57.21;52244.28;5079240;28;19924;-82
2022/10/07 09:31:50;;;;;;;;;;;;;;;-144.99;57.25;52248.34;5064420;28;19928;-77
2022/10/07 09:34:21;;;;;;;;;;;;;;;-144.99;57.39;52238.16;5063037;28;20542;-79
2022/10/07 09:37:06;;;;;;;;;;;;;;;-144.99;55.62;52217.78;5065607;28;19936;-76
2022/10/07 09:39:33;;;;;;;;;;;;;;;-144.99;54.54;52211.66;5065326;28;19935;-80
2022/10/07 09:42:00;;;;;;;;;;;;;;;-144.99;53.06;52181.09;5068493;28;19931;-77
2022/10/07 09:44:28;;;;;;;;;;;;;;;-144.99;51.62;52199.44;5064255;28;20286;-81
2022/10/07 09:46:56;;;;;;;;;;;;;;;-144.99;50.31;52168.84;5068000;28;19932;-80
2022/10/07 09:49:35;;;;;;;;;;;;;;;-144.99;50.37;52232.03;5067435;28;19924;-80
2022/10/07 09:52:03;;;;;;;;;;;;;;;-144.99;50.67;52170.91;5069749;28;20137;-79
2022/10/07 09:54:30;;;;;;;;;;;;;;;-144.99;50.76;52223.88;5070801;28;20027;-81
2022/10/07 09:56:59;;;;;;;;;;;;;;;-144.99;50.47;52211.66;5071586;28;19925;-79
2022/10/07 09:59:26;;;;;;;;;;;;;;;-144.99;50.08;52181.09;5071674;28;20326;-80
2022/10/07 10:01:54;;;;;;;;;;;;;;;-144.99;49.11;52215.75;5073157;28;19954;-81
2022/10/07 10:04:23;;;;;;;;;;;;;;;-144.99;48.08;52211.66;5060986;28;20011;-79
2022/10/07 10:06:51;;;;;;;;;;;;;;;-144.99;47.51;52166.81;5060884;28;20414;-80
2022/10/07 10:09:20;;;;;;;;;;;;;;;-144.99;47.37;52158.66;5070392;28;19932;-79
2022/10/07 10:11:50;;;;;;;;;;;;;;;-144.99;47.24;52191.28;5082526;28;19979;-85
2022/10/07 10:14:35;;;;;;;;;;;;;;;-144.99;47.15;52134.22;5089875;28;19980;-84
2022/10/07 10:17:03;;;;;;;;;;;;;;;-144.99;46.77;52126.06;5094103;28;19999;-85
2022/10/07 10:19:29;;;;;;;;;;;;;;;-144.99;46.53;52087.34;5091413;28;19928;-83
2022/10/07 10:21:56;;;;;;;;;;;;;;;-144.99;45.35;52069.00;5094099;28;19913;-84
2022/10/07 10:27:08;;;;;;;;;;;;;;;-144.99;44.03;52075.09;5099827;28;20501;-85
2022/10/07 10:29:42;;;;;;;;;;;;;;;-144.99;43.42;52044.53;5086236;28;19913;-85
2022/10/07 10:32:16;;;;;;;;;;;;;;;-144.99;43.65;52089.38;5093352;28;19960;-84
2022/10/07 10:34:47;;;;;;;;;;;;;;;-144.99;43.88;52101.59;5090276;28;19932;-86
2022/10/07 10:37:17;;;;;;;;;;;;;;;-144.99;44.03;52124.03;5091700;28;19912;-85
2022/10/07 10:39:51;;;;;;;;;;;;;;;-144.99;44.28;52064.91;5106334;28;19913;-85
2022/10/07 10:42:21;;;;;;;;;;;;;;;-144.99;44.30;52032.31;5093524;28;19972;-84
2022/10/07 10:45:01;;;;;;;;;;;;;;;-144.99;43.28;52050.66;5090116;28;19912;-85
2022/10/07 10:47:32;;;;;;;;;;;;;;;-144.99;44.17;52117.91;5095357;28;19921;-83
2022/10/07 10:50:07;;;;;;;;;;;;;;;-144.99;43.80;52081.22;5087587;28;19929;-82
2022/10/07 10:52:44;;;;;;;;;;;;;;;-144.99;43.58;52054.72;5089123;28;19939;-84
2022/10/07 10:55:20;;;;;;;;;;;;;;;-144.99;43.44;52064.91;5095150;28;19913;-83
2022/10/07 10:57:53;;;;;;;;;;;;;;;-144.99;42.37;52032.31;5091734;28;19974;-84
2022/10/07 11:00:22;;;;;;;;;;;;;;;-144.99;42.05;52032.31;5088814;28;19928;-84
2022/10/07 11:03:13;;;;;;;;;;;;;;;-144.99;42.57;52087.34;5092857;28;19912;-86
2022/10/07 11:05:41;;;;;;;;;;;;;;;-144.99;42.47;52028.22;5088452;28;19952;-86
2022/10/07 11:08:11;;;;;;;;;;;;;;;-144.99;42.15;52048.63;5093211;28;19934;-84
2022/10/07 11:10:40;;;;;;;;;;;;;;;-144.99;41.96;52028.22;5089754;28;20000;-86
2022/10/07 11:13:17;;;;;;;;;;;;;;;-144.99;42.01;52040.47;5084860;28;19962;-85
2022/10/07 11:15:47;;;;;;;;;;;;;;;-144.99;42.82;52069.00;5077671;28;20425;-85
2022/10/07 11:18:19;;;;;;;;;;;;;;;-144.99;42.45;52089.38;5083317;28;19964;-81
2022/10/07 11:20:47;;;;;;;;;;;;;;;-144.99;41.65;52024.16;5091536;28;19967;-85
2022/10/07 11:23:21;;;;;;;;;;;;;;;-144.99;39.81;52016.00;5087654;28;20001;-83
2022/10/07 11:25:50;;;;;;;;;;;;;;;-144.99;40.24;51987.47;5091495;28;19951;-81
2022/10/07 11:28:21;;;;;;;;;;;;;;;-144.99;40.12;52040.47;5091557;28;20019;-85
2022/10/07 11:30:52;;;;;;;;;;;;;;;-144.99;40.29;52048.63;5091618;28;19951;-84
2022/10/07 11:33:23;;;;;;;;;;;;;;;-144.99;40.78;52052.69;5089219;28;19912;-83
2022/10/07 11:35:51;;;;;;;;;;;;;;;-144.99;40.28;52036.38;5092835;28;19913;-82
2022/10/07 11:38:20;;;;;;;;;;;;;;;-144.99;40.31;52174.97;5093383;28;19933;-83
2022/10/07 11:40:48;;;;;;;;;;;;;;;-144.99;40.22;52077.16;5086215;28;19976;-82
2022/10/07 11:43:19;;;;;;;;;;;;;;;-144.99;40.39;52024.16;5080959;28;19925;-81
2022/10/07 11:45:50;;;;;;;;;;;;;;;-144.99;40.77;52232.03;5067528;28;19935;-80
2022/10/07 11:48:21;;;;;;;;;;;;;;;-144.99;42.26;52158.66;5080333;28;19928;-82
2022/10/07 11:50:51;;;;;;;;;;;;;;;-144.99;42.35;52187.19;5073381;28;19938;-80
2022/10/07 11:53:20;;;;;;;;;;;;;;;-144.99;41.62;52081.22;5076982;28;20015;-80
2022/10/07 11:55:48;;;;;;;;;;;;;;;-144.99;41.56;52085.31;5078143;28;19939;-82
2022/10/07 11:58:22;;;;;;;;;;;;;;;-144.99;40.38;52018.03;5073484;28;20034;-79
2022/10/07 12:00:49;;;;;;;;;;;;;;;-144.99;39.23;52064.91;5069412;28;19928;-80
2022/10/07 12:03:30;;;;;;;;;;;;;;;-144.99;38.20;52028.22;5076576;28;19925;-79
2022/10/07 12:06:06;;;;;;;;;;;;;;;-144.99;38.24;52020.09;4375812;28;10000987;-81
2022/10/07 12:08:33;;;;;;;;;;;;;;;-144.99;37.68;52056.78;5080487;28;19986;-84
2022/10/07 12:11:18;;;;;;;;;;;;;;;-144.99;38.55;52113.84;5081496;28;20396;-79
2022/10/07 12:13:45;;;;;;;;;;;;;;;-144.99;39.17;52093.44;5074875;28;19929;-81
2022/10/07 12:16:30;;;;;;;;;;;;;;;-144.99;39.10;52028.22;5077559;28;19966;-81
2022/10/07 12:19:11;;;;;;;;;;;;;;;-144.99;38.67;51987.47;5069814;28;19932;-82
2022/10/07 12:21:52;;;;;;;;;;;;;;;-144.99;38.33;52011.94;5065719;28;20027;-82
2022/10/07 12:24:20;;;;;;;;;;;;;;;-144.99;37.38;52085.31;5066533;28;19935;-78
2022/10/07 12:26:48;;;;;;;;;;;;;;;-144.99;37.89;52024.16;5069363;28;20019;-79
2022/10/07 12:29:21;;;;;;;;;;;;;;;-144.99;38.13;52028.22;5066200;28;20362;-82
2022/10/07 12:31:47;;;;;;;;;;;;;;;-144.99;38.41;52075.09;5066860;28;19967;-77
2022/10/07 12:34:21;;;;;;;;;;;;;;;-144.99;38.24;52058.81;5065770;28;20449;-79
2022/10/07 12:36:48;;;;;;;;;;;;;;;-144.99;38.65;52081.22;5064461;28;20004;-79
2022/10/07 12:39:34;;;;;;;;;;;;;;;-144.99;38.77;52044.53;5068032;28;19928;-80
2022/10/07 12:42:01;;;;;;;;;;;;;;;-144.99;37.77;52007.84;5083879;28;19928;-81